createdAt,value
2024-03-14T00:00:04.235Z,11.32
2024-03-14T00:02:38.545Z,11.32
2024-03-14T00:05:05.695Z,11.31
2024-03-14T00:07:32.601Z,11.30
2024-03-14T00:09:59.377Z,11.30
2024-03-14T00:12:26.744Z,11.31
2024-03-14T00:14:53.644Z,11.31
2024-03-14T00:17:23.828Z,11.32
2024-03-14T00:19:51.602Z,11.32
2024-03-14T00:22:18.420Z,11.34
2024-03-14T00:24:45.271Z,11.34
2024-03-14T00:27:12.163Z,11.35
2024-03-14T00:29:39.053Z,11.34
2024-03-14T00:32:05.933Z,11.35
2024-03-14T00:34:32.698Z,11.36
2024-03-14T00:36:59.445Z,11.36
2024-03-14T00:39:26.392Z,11.38
2024-03-14T00:41:53.302Z,11.39
2024-03-14T00:44:20.037Z,11.43
2024-03-14T00:46:46.926Z,11.45
2024-03-14T00:49:13.742Z,11.46
2024-03-14T00:51:40.506Z,11.48
2024-03-14T00:54:08.425Z,11.49
2024-03-14T00:56:35.152Z,11.49
2024-03-14T00:59:01.868Z,11.49
2024-03-14T01:01:28.649Z,11.47
2024-03-14T01:03:56.386Z,11.44
2024-03-14T01:06:23.279Z,11.41
2024-03-14T01:08:50.154Z,11.39
2024-03-14T01:11:19.944Z,11.35
2024-03-14T01:13:46.744Z,11.32
2024-03-14T01:16:13.735Z,11.28
2024-03-14T01:18:40.574Z,11.25
2024-03-14T01:21:07.414Z,11.23
2024-03-14T01:23:34.217Z,11.21
2024-03-14T01:26:01.121Z,11.20
2024-03-14T01:28:29.603Z,11.17
2024-03-14T01:30:56.429Z,11.18
2024-03-14T01:33:23.274Z,11.19
2024-03-14T01:35:50.180Z,11.20
2024-03-14T01:38:16.953Z,11.22
2024-03-14T01:40:43.712Z,11.22
2024-03-14T01:43:10.592Z,11.23
2024-03-14T01:45:37.391Z,11.23
2024-03-14T01:48:04.611Z,11.23
2024-03-14T01:50:31.364Z,11.23
2024-03-14T01:52:58.109Z,11.25
2024-03-14T01:55:24.850Z,11.24
2024-03-14T01:57:52.166Z,11.25
2024-03-14T02:00:25.346Z,11.25
2024-03-14T02:02:52.701Z,11.25
2024-03-14T02:05:33.255Z,11.22
2024-03-14T02:08:00.062Z,11.22
2024-03-14T02:10:26.917Z,11.20
2024-03-14T02:12:53.760Z,11.17
2024-03-14T02:18:09.148Z,11.12
2024-03-14T02:20:35.909Z,11.09
2024-03-14T02:23:02.675Z,11.07
2024-03-14T02:25:29.517Z,11.03
2024-03-14T02:27:56.269Z,11.01
2024-03-14T02:30:23.082Z,10.96
2024-03-14T02:32:49.969Z,10.93
2024-03-14T02:35:16.719Z,10.88
2024-03-14T02:37:43.535Z,10.84
2024-03-14T02:40:10.477Z,10.79
2024-03-14T02:42:37.212Z,10.74
2024-03-14T02:45:04.824Z,10.70
2024-03-14T02:47:31.612Z,10.61
2024-03-14T02:49:58.484Z,10.58
2024-03-14T02:52:25.275Z,10.53
2024-03-14T02:54:52.012Z,10.46
2024-03-14T02:57:18.778Z,10.41
2024-03-14T02:59:45.537Z,10.37
2024-03-14T03:02:12.559Z,10.31
2024-03-14T03:04:39.458Z,10.24
2024-03-14T03:07:07.067Z,10.21
2024-03-14T03:09:34.313Z,10.15
2024-03-14T03:12:01.187Z,10.12
2024-03-14T03:14:28.020Z,10.06
2024-03-14T03:16:54.780Z,10.02
2024-03-14T03:19:21.755Z,9.97
2024-03-14T03:21:48.481Z,9.92
2024-03-14T03:24:15.349Z,9.88
2024-03-14T03:26:42.114Z,9.85
2024-03-14T03:29:08.981Z,9.81
2024-03-14T03:31:35.816Z,9.78
2024-03-14T03:34:02.648Z,9.76
2024-03-14T03:36:29.478Z,9.72
2024-03-14T03:38:56.313Z,9.68
2024-03-14T03:41:23.173Z,9.65
2024-03-14T03:43:49.999Z,9.61
2024-03-14T03:46:19.093Z,9.58
2024-03-14T03:48:45.893Z,9.54
2024-03-14T03:51:13.931Z,9.50
2024-03-14T03:53:40.588Z,9.42
2024-03-14T03:56:07.328Z,9.44
2024-03-14T03:58:34.314Z,9.41
2024-03-14T04:01:07.550Z,9.38
2024-03-14T04:03:34.525Z,9.33
2024-03-14T04:06:01.424Z,9.30
2024-03-14T04:08:28.212Z,9.26
2024-03-14T04:10:54.987Z,9.23
2024-03-14T04:13:21.766Z,9.20
2024-03-14T04:15:48.471Z,9.18
2024-03-14T04:18:15.313Z,9.16
2024-03-14T04:20:42.073Z,9.14
2024-03-14T04:23:08.829Z,9.13
2024-03-14T04:25:35.562Z,9.09
2024-03-14T04:28:02.291Z,9.07
2024-03-14T04:30:29.201Z,9.05
2024-03-14T04:32:56.236Z,9.03
2024-03-14T04:35:23.000Z,9.01
2024-03-14T04:37:49.840Z,8.99
2024-03-14T04:40:17.476Z,8.98
2024-03-14T04:42:47.326Z,8.96
2024-03-14T04:45:16.327Z,8.94
2024-03-14T04:47:43.199Z,8.92
2024-03-14T04:50:10.025Z,8.92
2024-03-14T04:52:37.433Z,8.90
2024-03-14T04:55:04.758Z,8.89
2024-03-14T04:57:31.553Z,8.89
2024-03-14T04:59:58.411Z,8.89
2024-03-14T05:02:25.140Z,8.88
2024-03-14T05:04:51.933Z,8.88
2024-03-14T05:07:19.141Z,8.87
2024-03-14T05:09:45.870Z,8.86
2024-03-14T05:12:12.672Z,8.86
2024-03-14T05:14:39.433Z,8.85
2024-03-14T05:17:06.224Z,8.83
2024-03-14T05:19:33.065Z,8.81
2024-03-14T05:21:59.813Z,8.79
2024-03-14T05:24:26.646Z,8.75
2024-03-14T05:26:53.437Z,8.74
2024-03-14T05:29:20.210Z,8.74
2024-03-14T05:31:46.962Z,8.75
2024-03-14T05:34:13.735Z,8.76
2024-03-14T05:36:40.455Z,8.79
2024-03-14T05:39:07.214Z,8.81
2024-03-14T05:41:33.949Z,8.83
2024-03-14T05:44:00.681Z,8.87
2024-03-14T05:46:28.174Z,8.90
2024-03-14T05:48:55.168Z,8.94
2024-03-14T05:51:22.044Z,8.99
2024-03-14T05:53:48.863Z,9.05
2024-03-14T05:56:15.639Z,9.07
2024-03-14T05:58:42.419Z,9.13
2024-03-14T06:01:09.286Z,9.17
2024-03-14T06:03:36.091Z,9.21
2024-03-14T06:06:02.927Z,9.25
2024-03-14T06:08:29.765Z,9.31
2024-03-14T06:10:56.567Z,9.36
2024-03-14T06:13:23.378Z,9.43
2024-03-14T06:15:50.088Z,9.49
2024-03-14T06:18:17.441Z,9.56
2024-03-14T06:20:44.214Z,9.62
2024-03-14T06:23:10.952Z,9.71
2024-03-14T06:25:37.722Z,9.78
2024-03-14T06:28:04.577Z,9.86
2024-03-14T06:30:31.339Z,9.94
2024-03-14T06:32:58.178Z,10.01
2024-03-14T06:35:25.046Z,10.07
2024-03-14T06:37:54.500Z,10.13
2024-03-14T06:40:23.187Z,10.21
2024-03-14T06:42:50.328Z,10.26
2024-03-14T06:45:17.230Z,10.31
2024-03-14T06:47:44.398Z,10.37
2024-03-14T06:50:11.368Z,10.42
2024-03-14T06:52:38.098Z,10.47
2024-03-14T06:55:05.343Z,10.53
2024-03-14T06:57:32.173Z,10.59
2024-03-14T06:59:59.047Z,10.66
2024-03-14T07:02:25.755Z,10.73
2024-03-14T07:04:52.497Z,10.80
2024-03-14T07:07:19.241Z,10.86
2024-03-14T07:09:46.011Z,10.93
2024-03-14T07:12:12.882Z,11.01
2024-03-14T07:14:39.642Z,11.09
2024-03-14T07:17:06.409Z,11.16
2024-03-14T07:19:33.132Z,11.22
2024-03-14T07:21:59.837Z,11.29
2024-03-14T07:24:26.795Z,11.34
2024-03-14T07:26:53.616Z,11.42
2024-03-14T07:29:20.459Z,11.49
2024-03-14T07:31:47.221Z,11.56
2024-03-14T07:34:14.157Z,11.65
2024-03-14T07:36:41.024Z,11.73
2024-03-14T07:39:07.922Z,11.81
2024-03-14T07:41:34.920Z,11.90
2024-03-14T07:44:10.821Z,12.00
2024-03-14T07:46:47.639Z,12.06
2024-03-14T07:49:14.377Z,12.12
2024-03-14T07:51:41.184Z,12.20
2024-03-14T07:54:07.978Z,12.26
2024-03-14T07:56:34.738Z,12.33
2024-03-14T07:59:01.481Z,12.39
2024-03-14T08:01:28.278Z,12.46
2024-03-14T08:03:54.997Z,12.51
2024-03-14T08:06:21.749Z,12.59
2024-03-14T08:08:48.502Z,12.67
2024-03-14T08:11:15.837Z,12.75
2024-03-14T08:13:42.587Z,12.84
2024-03-14T08:16:09.755Z,12.92
2024-03-14T08:18:36.614Z,12.99
2024-03-14T08:21:03.947Z,13.09
2024-03-14T08:23:30.674Z,13.14
2024-03-14T08:25:57.473Z,13.20
2024-03-14T08:28:24.517Z,13.26
2024-03-14T08:30:51.392Z,13.33
2024-03-14T08:33:18.263Z,13.40
2024-03-14T08:35:45.389Z,13.47
2024-03-14T08:38:12.121Z,13.53
2024-03-14T08:40:38.853Z,13.61
2024-03-14T08:43:05.606Z,13.67
2024-03-14T08:45:32.691Z,13.72
2024-03-14T08:47:59.485Z,13.76
2024-03-14T08:50:28.446Z,13.82
2024-03-14T08:52:55.463Z,13.87
2024-03-14T08:55:22.325Z,13.91
2024-03-14T08:57:49.094Z,13.97
2024-03-14T09:00:15.955Z,14.03
2024-03-14T09:02:42.739Z,14.07
2024-03-14T09:05:09.474Z,14.11
2024-03-14T09:07:36.216Z,14.15
2024-03-14T09:10:03.401Z,14.19
2024-03-14T09:12:30.187Z,14.22
2024-03-14T09:14:56.929Z,14.25
2024-03-14T09:17:23.713Z,14.27
2024-03-14T09:19:50.471Z,14.29
2024-03-14T09:22:17.226Z,14.30
2024-03-14T09:24:44.006Z,14.36
2024-03-14T09:27:10.747Z,14.39
2024-03-14T09:29:37.504Z,14.45
2024-03-14T09:32:04.654Z,14.52
2024-03-14T09:34:31.380Z,14.58
2024-03-14T09:36:58.137Z,14.63
2024-03-14T09:39:24.917Z,14.69
2024-03-14T09:41:53.042Z,14.74
2024-03-14T09:44:19.815Z,14.71
2024-03-14T09:46:56.735Z,14.80
2024-03-14T09:49:24.488Z,14.84
2024-03-14T09:51:51.745Z,14.88
2024-03-14T09:54:20.317Z,14.93
2024-03-14T09:56:47.055Z,14.96
2024-03-14T09:59:13.789Z,15.01
2024-03-14T10:01:42.595Z,15.04
2024-03-14T10:04:14.065Z,15.09
2024-03-14T10:06:41.209Z,15.14
2024-03-14T10:09:11.966Z,15.18
2024-03-14T10:11:41.754Z,15.23
2024-03-14T10:14:08.558Z,15.28
2024-03-14T10:16:35.313Z,15.32
2024-03-14T10:19:02.215Z,15.37
2024-03-14T10:21:28.962Z,15.44
2024-03-14T10:23:55.821Z,15.50
2024-03-14T10:26:22.583Z,15.58
2024-03-14T10:28:49.349Z,15.65
2024-03-14T10:31:16.099Z,15.69
2024-03-14T10:33:43.175Z,15.74
2024-03-14T10:36:12.400Z,15.79
2024-03-14T10:38:41.836Z,15.81
2024-03-14T10:41:10.768Z,15.82
2024-03-14T10:43:42.373Z,15.83
2024-03-14T10:46:13.235Z,15.87
2024-03-14T10:48:41.278Z,15.92
2024-03-14T10:51:08.844Z,15.91
2024-03-14T10:53:36.697Z,15.89
2024-03-14T10:56:05.383Z,15.89
2024-03-14T10:58:33.093Z,15.91
2024-03-14T11:01:00.449Z,15.92
2024-03-14T11:03:28.992Z,15.95
2024-03-14T11:05:57.395Z,16.01
2024-03-14T11:08:25.638Z,16.06
2024-03-14T11:10:57.789Z,16.11
2024-03-14T11:13:26.765Z,16.17
2024-03-14T11:15:54.993Z,16.24
2024-03-14T11:18:26.208Z,16.30
2024-03-14T11:20:57.039Z,16.38
2024-03-14T11:23:27.564Z,16.47
2024-03-14T11:25:58.967Z,16.56
2024-03-14T11:28:27.743Z,16.64
2024-03-14T11:30:56.792Z,16.74
2024-03-14T11:33:27.887Z,16.81
2024-03-14T11:35:59.779Z,16.86
2024-03-14T11:38:28.308Z,16.95
2024-03-14T11:40:58.637Z,17.01
2024-03-14T11:43:26.741Z,17.06
2024-03-14T11:46:02.095Z,17.09
2024-03-14T11:48:29.679Z,17.15
2024-03-14T11:50:57.438Z,17.17
2024-03-14T11:53:24.212Z,17.22
2024-03-14T11:55:58.610Z,17.27
2024-03-14T11:58:33.274Z,17.33
2024-03-14T12:01:00.135Z,17.39
2024-03-14T12:03:26.944Z,17.45
2024-03-14T12:05:53.758Z,17.50
2024-03-14T12:08:20.618Z,17.56
2024-03-14T12:10:56.489Z,17.62
2024-03-14T12:13:24.762Z,17.67
2024-03-14T12:15:58.444Z,17.68
2024-03-14T12:18:25.262Z,17.70
2024-03-14T12:20:52.214Z,17.76
2024-03-14T12:23:18.963Z,17.77
2024-03-14T12:25:47.454Z,17.77
2024-03-14T12:28:14.492Z,17.78
2024-03-14T12:30:44.260Z,17.82
2024-03-14T12:33:11.569Z,17.85
2024-03-14T12:35:42.219Z,17.87
2024-03-14T12:38:13.233Z,17.94
2024-03-14T12:40:40.508Z,18.00
2024-03-14T12:43:07.565Z,18.03
2024-03-14T12:45:34.745Z,18.06
2024-03-14T12:48:01.777Z,18.10
2024-03-14T12:50:28.772Z,18.13
2024-03-14T12:53:05.551Z,18.16
2024-03-14T12:55:35.561Z,18.24
2024-03-14T12:58:07.124Z,18.32
2024-03-14T13:00:35.833Z,18.33
2024-03-14T13:03:02.925Z,18.33
2024-03-14T13:05:29.789Z,18.35
2024-03-14T13:08:15.487Z,18.36
2024-03-14T13:10:42.801Z,18.37
2024-03-14T13:13:13.766Z,18.35
2024-03-14T13:15:46.575Z,18.37
2024-03-14T13:18:19.608Z,18.36
2024-03-14T13:20:55.811Z,18.37
2024-03-14T13:23:22.593Z,18.41
2024-03-14T13:25:49.586Z,18.44
2024-03-14T13:28:16.280Z,18.43
2024-03-14T13:30:43.713Z,18.46
2024-03-14T13:33:10.883Z,18.48
2024-03-14T13:35:37.856Z,18.49
2024-03-14T13:38:04.761Z,18.47
2024-03-14T13:40:31.451Z,18.52
2024-03-14T13:42:58.221Z,18.54
2024-03-14T13:45:25.197Z,18.57
2024-03-14T13:47:52.514Z,18.57
2024-03-14T13:50:19.408Z,18.60
2024-03-14T13:52:46.169Z,18.62
2024-03-14T13:55:13.300Z,18.66
2024-03-14T13:57:40.101Z,18.69
2024-03-14T14:00:07.725Z,18.70
2024-03-14T14:02:38.905Z,18.73
2024-03-14T14:05:05.756Z,18.74
2024-03-14T14:07:33.441Z,18.76
2024-03-14T14:10:01.876Z,18.77
2024-03-14T14:12:28.621Z,18.78
2024-03-14T14:14:55.450Z,18.83
2024-03-14T14:17:22.188Z,18.87
2024-03-14T14:19:48.954Z,18.90
2024-03-14T14:22:15.680Z,18.93
2024-03-14T14:24:42.493Z,18.96
2024-03-14T14:27:09.363Z,18.95
2024-03-14T14:29:36.103Z,18.95
2024-03-14T14:32:02.872Z,18.95
2024-03-14T14:34:29.669Z,18.95
2024-03-14T14:36:56.429Z,18.96
2024-03-14T14:39:23.245Z,18.98
2024-03-14T14:41:49.979Z,19.02
2024-03-14T14:44:16.721Z,19.06
2024-03-14T14:46:43.463Z,19.06
2024-03-14T14:49:10.326Z,19.06
2024-03-14T14:51:38.546Z,19.04
2024-03-14T14:54:05.528Z,19.04
2024-03-14T14:56:32.330Z,19.02
2024-03-14T14:58:59.088Z,18.99
2024-03-14T15:01:25.949Z,18.98
2024-03-14T15:03:52.806Z,18.98
2024-03-14T15:06:19.798Z,18.98
2024-03-14T15:08:47.363Z,18.98
2024-03-14T15:11:14.581Z,19.01
2024-03-14T15:13:41.403Z,19.04
2024-03-14T15:16:08.502Z,19.05
2024-03-14T15:18:37.441Z,19.07
2024-03-14T15:21:05.370Z,19.10
2024-03-14T15:23:32.156Z,19.10
2024-03-14T15:25:58.962Z,19.12
2024-03-14T15:28:25.701Z,19.14
2024-03-14T15:30:52.544Z,19.16
2024-03-14T15:33:19.340Z,19.17
2024-03-14T15:35:46.113Z,19.18
2024-03-14T15:38:12.868Z,19.16
2024-03-14T15:40:39.641Z,19.18
2024-03-14T15:43:07.049Z,19.18
2024-03-14T15:45:33.881Z,19.17
2024-03-14T15:48:00.822Z,19.18
2024-03-14T15:50:27.682Z,19.17
2024-03-14T15:52:54.412Z,19.18
2024-03-14T15:55:21.168Z,19.19
2024-03-14T15:57:48.009Z,19.19
2024-03-14T16:00:15.485Z,19.18
2024-03-14T16:02:44.487Z,19.16
2024-03-14T16:05:11.892Z,19.14
2024-03-14T16:07:38.909Z,19.12
2024-03-14T16:10:06.462Z,19.10
2024-03-14T16:12:33.635Z,19.06
2024-03-14T16:15:00.679Z,19.02
2024-03-14T16:17:27.547Z,18.98
2024-03-14T16:19:54.364Z,18.99
2024-03-14T16:22:21.104Z,19.07
2024-03-14T16:24:47.892Z,19.20
2024-03-14T16:27:14.676Z,19.33
2024-03-14T16:29:41.448Z,19.46
2024-03-14T16:32:08.201Z,19.58
2024-03-14T16:34:34.880Z,19.65
2024-03-14T16:37:01.615Z,19.64
2024-03-14T16:39:28.392Z,19.59
2024-03-14T16:41:55.159Z,19.49
2024-03-14T16:44:21.926Z,19.37
2024-03-14T16:46:48.687Z,19.24
2024-03-14T16:49:15.403Z,19.11
2024-03-14T16:51:42.202Z,19.00
2024-03-14T16:54:09.067Z,18.85
2024-03-14T16:56:35.827Z,18.70
2024-03-14T16:59:02.579Z,18.51
2024-03-14T17:01:32.308Z,18.33
2024-03-14T17:03:59.225Z,18.13
2024-03-14T17:06:25.979Z,17.92
2024-03-14T17:08:52.716Z,17.73
2024-03-14T17:11:19.524Z,17.56
2024-03-14T17:13:46.289Z,17.39
2024-03-14T17:16:13.051Z,17.22
2024-03-14T17:18:39.888Z,17.05
2024-03-14T17:21:06.764Z,16.90
2024-03-14T17:23:33.548Z,16.73
2024-03-14T17:26:00.422Z,16.56
2024-03-14T17:28:27.175Z,16.40
2024-03-14T17:30:53.957Z,16.25
2024-03-14T17:33:21.008Z,16.11
2024-03-14T17:35:47.773Z,15.96
2024-03-14T17:38:14.602Z,15.82
2024-03-14T17:40:41.325Z,15.69
2024-03-14T17:43:08.079Z,15.55
2024-03-14T17:45:34.879Z,15.43
2024-03-14T17:48:01.712Z,15.32
2024-03-14T17:50:28.499Z,15.18
2024-03-14T17:52:55.308Z,15.08
2024-03-14T17:55:22.054Z,14.98
2024-03-14T17:57:48.872Z,14.86
2024-03-14T18:00:16.142Z,14.77
2024-03-14T18:02:43.371Z,14.67
2024-03-14T18:05:13.262Z,14.58
2024-03-14T18:07:42.488Z,14.48
2024-03-14T18:10:09.299Z,14.41
2024-03-14T18:12:36.225Z,14.32
2024-03-14T18:15:03.391Z,14.24
2024-03-14T18:17:30.620Z,14.16
2024-03-14T18:19:57.363Z,14.08
2024-03-14T18:22:24.140Z,14.00
2024-03-14T18:24:50.869Z,13.94
2024-03-14T18:27:17.639Z,13.85
2024-03-14T18:29:44.403Z,13.79
2024-03-14T18:32:11.148Z,13.73
2024-03-14T18:34:37.895Z,13.66
2024-03-14T18:37:04.806Z,13.60
2024-03-14T18:39:32.147Z,13.52
2024-03-14T18:41:59.368Z,13.47
2024-03-14T18:44:26.167Z,13.39
2024-03-14T18:46:52.902Z,13.34
2024-03-14T18:49:22.870Z,13.29
2024-03-14T18:51:50.678Z,13.22
2024-03-14T18:54:18.327Z,13.16
2024-03-14T18:56:45.834Z,13.11
2024-03-14T18:59:12.741Z,13.04
2024-03-14T19:01:42.175Z,13.00
2024-03-14T19:04:09.015Z,12.95
2024-03-14T19:06:35.874Z,12.90
2024-03-14T19:09:02.958Z,12.86
2024-03-14T19:11:33.902Z,12.81
2024-03-14T19:14:00.730Z,12.77
2024-03-14T19:16:27.502Z,12.74
2024-03-14T19:18:54.413Z,12.68
2024-03-14T19:21:21.252Z,12.65
2024-03-14T19:23:50.995Z,12.61
2024-03-14T19:26:17.740Z,12.56
2024-03-14T19:28:45.641Z,12.50
2024-03-14T19:31:14.735Z,12.48
2024-03-14T19:33:41.557Z,12.44
2024-03-14T19:36:08.492Z,12.41
2024-03-14T19:38:35.516Z,12.39
2024-03-14T19:41:02.284Z,12.35
2024-03-14T19:43:29.027Z,12.33
2024-03-14T19:45:55.833Z,12.31
2024-03-14T19:48:22.634Z,12.31
2024-03-14T19:50:49.450Z,12.29
2024-03-14T19:53:16.253Z,12.25
2024-03-14T19:55:42.995Z,12.23
2024-03-14T19:58:09.733Z,12.21
2024-03-14T20:00:36.523Z,12.19
2024-03-14T20:03:03.641Z,12.16
2024-03-14T20:05:33.474Z,12.14
2024-03-14T20:08:00.580Z,12.12
2024-03-14T20:10:27.378Z,12.10
2024-03-14T20:12:54.364Z,12.07
2024-03-14T20:15:21.271Z,12.04
2024-03-14T20:17:48.296Z,12.00
2024-03-14T20:20:15.289Z,11.95
2024-03-14T20:22:42.510Z,11.94
2024-03-14T20:25:09.734Z,11.89
2024-03-14T20:27:36.591Z,11.85
2024-03-14T20:30:03.473Z,11.82
2024-03-14T20:32:30.257Z,11.78
2024-03-14T20:34:57.109Z,11.75
2024-03-14T20:37:24.130Z,11.73
2024-03-14T20:40:00.913Z,11.69
2024-03-14T20:42:28.535Z,11.66
2024-03-14T20:44:55.305Z,11.65
2024-03-14T20:47:22.050Z,11.59
2024-03-14T20:49:48.936Z,11.58
2024-03-14T20:52:15.799Z,11.54
2024-03-14T20:54:46.957Z,11.52
2024-03-14T20:57:14.219Z,11.49
2024-03-14T20:59:41.222Z,11.48
2024-03-14T21:02:08.376Z,11.45
2024-03-14T21:04:35.192Z,11.41
2024-03-14T21:07:01.991Z,11.38
2024-03-14T21:09:28.790Z,11.35
2024-03-14T21:11:55.594Z,11.32
2024-03-14T21:14:22.373Z,11.30
2024-03-14T21:16:49.122Z,11.29
2024-03-14T21:19:15.878Z,11.25
2024-03-14T21:21:42.716Z,11.23
2024-03-14T21:24:09.615Z,11.21
2024-03-14T21:26:36.455Z,11.19
2024-03-14T21:29:03.484Z,11.16
2024-03-14T21:31:31.376Z,11.13
2024-03-14T21:33:58.127Z,11.09
2024-03-14T21:36:24.884Z,11.07
2024-03-14T21:38:51.683Z,11.03
2024-03-14T21:41:18.437Z,11.00
2024-03-14T21:43:45.182Z,10.97
2024-03-14T21:46:14.789Z,10.89
2024-03-14T21:48:41.572Z,10.86
2024-03-14T21:51:08.341Z,10.80
2024-03-14T21:53:35.140Z,10.78
2024-03-14T21:56:01.882Z,10.74
2024-03-14T21:58:37.543Z,10.70
2024-03-14T22:01:08.357Z,10.66
2024-03-14T22:03:36.464Z,10.64
2024-03-14T22:06:04.622Z,10.60
2024-03-14T22:08:31.410Z,10.57
2024-03-14T22:10:58.158Z,10.53
2024-03-14T22:13:24.956Z,10.51
2024-03-14T22:15:51.725Z,10.48
2024-03-14T22:18:19.921Z,10.46
2024-03-14T22:20:46.984Z,10.45
2024-03-14T22:23:13.763Z,10.43
2024-03-14T22:25:40.597Z,10.42
2024-03-14T22:28:07.327Z,10.40
2024-03-14T22:30:34.125Z,10.39
2024-03-14T22:33:00.916Z,10.37
2024-03-14T22:35:27.702Z,10.36
2024-03-14T22:37:54.409Z,10.33
2024-03-14T22:40:21.170Z,10.32
2024-03-14T22:42:48.489Z,10.30
2024-03-14T22:45:15.658Z,10.28
2024-03-14T22:47:42.477Z,10.27
2024-03-14T22:50:09.377Z,10.24
2024-03-14T22:52:36.124Z,10.22
2024-03-14T22:55:03.027Z,10.20
2024-03-14T22:57:29.824Z,10.17
2024-03-14T22:59:56.602Z,10.14
2024-03-14T23:02:23.415Z,10.11
2024-03-14T23:04:50.210Z,10.06
2024-03-14T23:07:17.017Z,10.05
2024-03-14T23:09:43.841Z,10.02
2024-03-14T23:12:10.612Z,9.98
2024-03-14T23:14:37.400Z,9.96
2024-03-14T23:17:04.147Z,9.92
2024-03-14T23:19:30.941Z,9.89
2024-03-14T23:21:57.745Z,9.87
2024-03-14T23:24:24.503Z,9.84
2024-03-14T23:26:51.272Z,9.81
2024-03-14T23:29:18.024Z,9.79
2024-03-14T23:31:44.784Z,9.77
2024-03-14T23:34:11.624Z,9.76
2024-03-14T23:36:38.700Z,9.73
2024-03-14T23:39:05.628Z,9.71
2024-03-14T23:41:32.432Z,9.70
2024-03-14T23:43:59.182Z,9.67
2024-03-14T23:46:25.943Z,9.66
2024-03-14T23:48:52.737Z,9.63
2024-03-14T23:51:19.616Z,9.61
2024-03-14T23:53:46.405Z,9.60
2024-03-14T23:56:13.186Z,9.58
2024-03-14T23:58:39.939Z,9.55
